Mr Farrel — WDF2273 — position and weather

sailwx.info

Track history (hours):
 
Tides and Currents Weather Stations Pressure Air Temp Water Temp Dewpoint Dewpoint Depression Visibility Wind Speed Wind Dir Waves Ship Positions

Mr Farrel

Owner: Crosby Marine Transportation LLC, Golden Meadow, LA. More information available from US FCC via Universal Licensing System and Coast Guard Vessel Documentation Center.

Last reported at 2017-Nov-24 15:17 UTC. Time now 2017-Nov-25 02:09 UTC.
Position N 29°47' W 095°06'.

; draft 3 m.

Type: Tug. MMSI: 367426830.

Date/timePositionNaut miles runAvg speedWind from/ knotsBaromVisibWave heightAir tempDewpointWater temp
2017-Nov-24 15:17N 29°47' W 095°06'0 0.0
2017-Nov-24 14:55N 29°47' W 095°06'0 0.0
2017-Nov-24 12:01N 29°47' W 095°06'  
2017-Nov-19 22:23N 29°47' W 095°06'0 0.0
2017-Nov-19 21:35N 29°47' W 095°06'0 0.0
2017-Nov-19 21:16N 29°47' W 095°06'3 1.1
2017-Nov-19 18:30N 29°45' W 095°04'3 6.6
2017-Nov-19 17:59N 29°42' W 095°01'3 6.3
2017-Nov-19 17:28N 29°40' W 094°58'4 7.5
2017-Nov-19 17:00N 29°36' W 094°57'  
2017-Nov-16 15:57N 29°28' W 094°51'4 8.1
2017-Nov-16 15:30N 29°31' W 094°53'4 7.6
2017-Nov-16 15:00N 29°34' W 094°55'4 7.4
2017-Nov-16 14:30N 29°37' W 094°58'4 7.7
2017-Nov-16 14:00N 29°41' W 094°59'4 7.1
2017-Nov-16 13:30N 29°44' W 095°02'3 7.1
2017-Nov-16 13:00N 29°46' W 095°05'2 0.1
2017-Nov-15 21:26N 29°47' W 095°04'0 0.0
2017-Nov-15 21:00N 29°47' W 095°04'0 0.0
2017-Nov-15 20:30N 29°47' W 095°04'1 1.4
2017-Nov-15 19:57N 29°47' W 095°05'3 5.3
2017-Nov-15 19:22N 29°44' W 095°07'3 6.5
2017-Nov-15 18:57N 29°45' W 095°10'3 6.2
2017-Nov-15 18:27N 29°43' W 095°13'1 2.9
2017-Nov-15 18:00N 29°43' W 095°15'0 0.0
2017-Nov-15 17:30N 29°43' W 095°15'0 0.0
2017-Nov-15 17:00N 29°43' W 095°15'0 0.0
2017-Nov-15 16:30N 29°43' W 095°15'0 0.0
2017-Nov-15 16:00N 29°43' W 095°15'0 0.0
2017-Nov-15 15:30N 29°43' W 095°15'0 0.0
2017-Nov-15 15:00N 29°43' W 095°15'0 0.0
2017-Nov-15 14:30N 29°43' W 095°15'0 0.0
2017-Nov-15 14:00N 29°43' W 095°15'0 0.0
2017-Nov-15 13:30N 29°43' W 095°15'0 0.0
2017-Nov-15 13:00N 29°43' W 095°15'0 0.0
2017-Nov-15 12:30N 29°43' W 095°15'0 0.0
2017-Nov-15 12:00N 29°43' W 095°15'0 0.0
2017-Nov-15 11:30N 29°43' W 095°15'0 0.0
2017-Nov-15 11:00N 29°43' W 095°15'0 0.0
2017-Nov-15 10:30N 29°43' W 095°15'0 0.0
2017-Nov-15 10:00N 29°43' W 095°15'0 0.0
2017-Nov-15 09:30N 29°43' W 095°15'0 0.0
2017-Nov-15 09:00N 29°43' W 095°15'0 0.0
2017-Nov-15 08:30N 29°43' W 095°15'0 0.0
2017-Nov-15 08:00N 29°43' W 095°15'0 0.0
2017-Nov-15 07:30N 29°43' W 095°15'0 0.0
2017-Nov-15 07:00N 29°43' W 095°15'0 0.0
2017-Nov-15 06:30N 29°43' W 095°15'0 0.0
2017-Nov-15 06:00N 29°43' W 095°15'0 0.0
2017-Nov-15 05:26N 29°43' W 095°15'0 0.0
2017-Nov-15 05:00N 29°43' W 095°15'0 0.0
2017-Nov-15 04:30N 29°43' W 095°15'0 0.0
2017-Nov-15 04:00N 29°43' W 095°15'0 0.0
2017-Nov-15 03:30N 29°43' W 095°15'0 0.0
2017-Nov-15 03:00N 29°43' W 095°15'0 0.0
2017-Nov-15 02:30N 29°43' W 095°15'0 0.0
2017-Nov-15 02:00N 29°43' W 095°15'0 0.0
2017-Nov-15 01:30N 29°43' W 095°15'0 0.0
2017-Nov-15 01:00N 29°43' W 095°15'0 0.0
2017-Nov-15 00:30N 29°43' W 095°15'0 0.0
2017-Nov-15 00:00N 29°43' W 095°15'0 0.0
2017-Nov-14 23:30N 29°43' W 095°15'0 0.0
2017-Nov-14 23:00N 29°43' W 095°15'0 0.0
2017-Nov-14 22:30N 29°43' W 095°15'0 0.0
2017-Nov-14 22:00N 29°43' W 095°15'0 0.0
2017-Nov-14 21:30N 29°43' W 095°15'0 0.0
2017-Nov-14 21:00N 29°43' W 095°15'3 5.3
2017-Nov-14 20:30N 29°44' W 095°12'3 6.2
2017-Nov-14 19:59N 29°44' W 095°08'3 0.9
2017-Nov-14 16:52N 29°45' W 095°05'3 6.9
2017-Nov-14 16:29N 29°44' W 095°08'4 6.1
2017-Nov-14 15:46N 29°43' W 095°13'1 4.8
2017-Nov-14 15:30N 29°43' W 095°14'  
Track history (hours):
 
Tides and Currents Weather Stations Pressure Air Temp Water Temp Dewpoint Dewpoint Depression Visibility Wind Speed Wind Dir Waves Ship Positions

Mr Farrel

Owner: Crosby Marine Transportation LLC, Golden Meadow, LA. More information available from US FCC via Universal Licensing System and Coast Guard Vessel Documentation Center.

Last reported at 2017-Nov-24 15:17 UTC. Time now 2017-Nov-25 02:09 UTC.
Position N 29°47' W 095°06'.

; draft 3 m.

Type: Tug. MMSI: 367426830.

Date/timePositionNaut miles runAvg speedWind from/ knotsBaromVisibWave heightAir tempDewpointWater temp
2017-Nov-24 15:17N 29°47' W 095°06'0 0.0
2017-Nov-24 14:55N 29°47' W 095°06'0 0.0
2017-Nov-24 12:01N 29°47' W 095°06'  
2017-Nov-19 22:23N 29°47' W 095°06'0 0.0
2017-Nov-19 21:35N 29°47' W 095°06'0 0.0
2017-Nov-19 21:16N 29°47' W 095°06'3 1.1
2017-Nov-19 18:30N 29°45' W 095°04'3 6.6
2017-Nov-19 17:59N 29°42' W 095°01'3 6.3
2017-Nov-19 17:28N 29°40' W 094°58'4 7.5
2017-Nov-19 17:00N 29°36' W 094°57'  
2017-Nov-16 15:57N 29°28' W 094°51'4 8.1
2017-Nov-16 15:30N 29°31' W 094°53'4 7.6
2017-Nov-16 15:00N 29°34' W 094°55'4 7.4
2017-Nov-16 14:30N 29°37' W 094°58'4 7.7
2017-Nov-16 14:00N 29°41' W 094°59'4 7.1
2017-Nov-16 13:30N 29°44' W 095°02'3 7.1
2017-Nov-16 13:00N 29°46' W 095°05'2 0.1
2017-Nov-15 21:26N 29°47' W 095°04'0 0.0
2017-Nov-15 21:00N 29°47' W 095°04'0 0.0
2017-Nov-15 20:30N 29°47' W 095°04'1 1.4
2017-Nov-15 19:57N 29°47' W 095°05'3 5.3
2017-Nov-15 19:22N 29°44' W 095°07'3 6.5
2017-Nov-15 18:57N 29°45' W 095°10'3 6.2
2017-Nov-15 18:27N 29°43' W 095°13'1 2.9
2017-Nov-15 18:00N 29°43' W 095°15'0 0.0
2017-Nov-15 17:30N 29°43' W 095°15'0 0.0
2017-Nov-15 17:00N 29°43' W 095°15'0 0.0
2017-Nov-15 16:30N 29°43' W 095°15'0 0.0
2017-Nov-15 16:00N 29°43' W 095°15'0 0.0
2017-Nov-15 15:30N 29°43' W 095°15'0 0.0
2017-Nov-15 15:00N 29°43' W 095°15'0 0.0
2017-Nov-15 14:30N 29°43' W 095°15'0 0.0
2017-Nov-15 14:00N 29°43' W 095°15'0 0.0
2017-Nov-15 13:30N 29°43' W 095°15'0 0.0
2017-Nov-15 13:00N 29°43' W 095°15'0 0.0
2017-Nov-15 12:30N 29°43' W 095°15'0 0.0
2017-Nov-15 12:00N 29°43' W 095°15'0 0.0
2017-Nov-15 11:30N 29°43' W 095°15'0 0.0
2017-Nov-15 11:00N 29°43' W 095°15'0 0.0
2017-Nov-15 10:30N 29°43' W 095°15'0 0.0
2017-Nov-15 10:00N 29°43' W 095°15'0 0.0
2017-Nov-15 09:30N 29°43' W 095°15'0 0.0
2017-Nov-15 09:00N 29°43' W 095°15'0 0.0
2017-Nov-15 08:30N 29°43' W 095°15'0 0.0
2017-Nov-15 08:00N 29°43' W 095°15'0 0.0
2017-Nov-15 07:30N 29°43' W 095°15'0 0.0
2017-Nov-15 07:00N 29°43' W 095°15'0 0.0
2017-Nov-15 06:30N 29°43' W 095°15'0 0.0
2017-Nov-15 06:00N 29°43' W 095°15'0 0.0
2017-Nov-15 05:26N 29°43' W 095°15'0 0.0
2017-Nov-15 05:00N 29°43' W 095°15'0 0.0
2017-Nov-15 04:30N 29°43' W 095°15'0 0.0
2017-Nov-15 04:00N 29°43' W 095°15'0 0.0
2017-Nov-15 03:30N 29°43' W 095°15'0 0.0
2017-Nov-15 03:00N 29°43' W 095°15'0 0.0
2017-Nov-15 02:30N 29°43' W 095°15'0 0.0
2017-Nov-15 02:00N 29°43' W 095°15'0 0.0
2017-Nov-15 01:30N 29°43' W 095°15'0 0.0
2017-Nov-15 01:00N 29°43' W 095°15'0 0.0
2017-Nov-15 00:30N 29°43' W 095°15'0 0.0
2017-Nov-15 00:00N 29°43' W 095°15'0 0.0
2017-Nov-14 23:30N 29°43' W 095°15'0 0.0
2017-Nov-14 23:00N 29°43' W 095°15'0 0.0
2017-Nov-14 22:30N 29°43' W 095°15'0 0.0
2017-Nov-14 22:00N 29°43' W 095°15'0 0.0
2017-Nov-14 21:30N 29°43' W 095°15'0 0.0
2017-Nov-14 21:00N 29°43' W 095°15'3 5.3
2017-Nov-14 20:30N 29°44' W 095°12'3 6.2
2017-Nov-14 19:59N 29°44' W 095°08'3 0.9
2017-Nov-14 16:52N 29°45' W 095°05'3 6.9
2017-Nov-14 16:29N 29°44' W 095°08'4 6.1
2017-Nov-14 15:46N 29°43' W 095°13'1 4.8
2017-Nov-14 15:30N 29°43' W 095°14'  

Dump ship's entire track history